Time;durP1;ratioP1;P1;durP2;ratioP2;P2;SDS_P1;SDS_P2;PMS_P1;PMS_P2;Temp;Humidity;BMP_temperature;BMP_pressure;BME280_temperature;BME280_humidity;BME280_pressure;Samples;Min_cycle;Max_cycle;Signal;HPM_P1;HPM_P2
2023/11/02 00:02:29;;;;;;;15.90;10.60;;;;;;;8.10;90.21;99147.71;130284;1268;114751;-64
2023/11/02 00:05:53;;;;;;;15.20;10.10;;;;;;;8.08;90.38;99149.79;129912;1271;114933;-64
2023/11/02 00:09:01;;;;;;;12.70;9.00;;;;;;;8.06;90.08;99150.77;130199;1254;128890;-65
2023/11/02 00:12:24;;;;;;;19.60;10.70;;;;;;;8.05;90.31;99155.46;129913;1255;115351;-65
2023/11/02 00:15:27;;;;;;;15.20;9.10;;;;;;;8.03;90.15;99158.91;129896;1254;114891;-65
2023/11/02 00:18:31;;;;;;;16.20;9.80;;;;;;;8.03;90.37;99161.81;130256;1256;114852;-66
2023/11/02 00:21:36;;;;;;;15.70;9.40;;;;;;;8.02;90.32;99159.91;129940;1267;114926;-66
2023/11/02 00:24:40;;;;;;;;;;;;;;;8.01;89.95;99157.64;129889;1277;127655;-65
2023/11/02 00:27:42;;;;;;;13.80;8.20;;;;;;;7.98;90.13;99141.27;129964;1262;114891;-64
2023/11/02 00:30:46;;;;;;;11.00;8.10;;;;;;;7.96;90.19;99125.80;130129;1277;115380;-67
2023/11/02 00:33:48;;;;;;;17.10;8.60;;;;;;;7.93;90.23;99121.31;130459;1257;114785;-67
2023/11/02 00:36:50;;;;;;;15.90;9.00;;;;;;;7.90;90.10;99131.58;130338;1255;115266;-67
2023/11/02 00:39:53;;;;;;;16.40;8.80;;;;;;;7.89;90.05;99135.94;130374;1254;115594;-69
2023/11/02 00:42:56;;;;;;;17.80;7.80;;;;;;;7.86;89.91;99141.96;130101;1270;128030;-71
2023/11/02 00:45:58;;;;;;;16.10;8.20;;;;;;;7.84;90.19;99136.92;130365;1267;114710;-71
2023/11/02 00:49:01;;;;;;;15.90;9.10;;;;;;;7.80;90.03;99136.59;130404;1257;114721;-67
2023/11/02 00:52:05;;;;;;;12.60;8.80;;;;;;;7.77;90.27;99131.63;130467;1254;114705;-66
2023/11/02 00:55:32;;;;;;;14.50;8.20;;;;;;;7.73;90.26;99124.56;130326;1277;114728;-68
2023/11/02 00:58:34;;;;;;;13.20;7.70;;;;;;;7.69;90.28;99119.60;130360;1258;115001;-70
2023/11/02 01:01:36;;;;;;;16.00;7.80;;;;;;;7.66;90.75;99117.65;130284;1255;115077;-71
2023/11/02 01:04:44;;;;;;;16.30;8.10;;;;;;;7.66;90.27;99116.45;130421;1258;114714;-72
2023/11/02 01:07:46;;;;;;;14.10;7.30;;;;;;;7.64;90.81;99106.94;130002;1258;114729;-71
2023/11/02 01:10:48;;;;;;;13.70;6.90;;;;;;;7.63;90.99;99100.41;130339;1254;114873;-68
2023/11/02 01:13:50;;;;;;;11.30;7.30;;;;;;;7.63;90.80;99100.42;130355;1269;114725;-67
2023/11/02 01:16:52;;;;;;;18.10;7.80;;;;;;;7.62;90.80;99097.98;130344;1254;114804;-72
2023/11/02 01:19:56;;;;;;;12.00;7.00;;;;;;;7.62;90.94;99101.58;130272;1257;115214;-72
2023/11/02 01:23:04;;;;;;;13.20;8.00;;;;;;;7.62;91.07;99101.02;130259;1257;114811;-67
2023/11/02 01:26:35;;;;;;;12.90;7.50;;;;;;;7.62;90.89;99095.70;130030;1270;114829;-69
2023/11/02 01:29:38;;;;;;;10.90;6.70;;;;;;;7.62;91.01;99091.97;130377;1257;114768;-65
2023/11/02 01:32:40;;;;;;;12.90;7.30;;;;;;;7.60;91.19;99087.98;130351;1267;114660;-66
2023/11/02 01:35:43;;;;;;;11.80;6.60;;;;;;;7.60;90.99;99089.96;130375;1254;114856;-70
2023/11/02 01:38:45;;;;;;;15.00;6.60;;;;;;;7.58;91.20;99085.41;130072;1264;114910;-65
2023/11/02 01:42:11;;;;;;;9.50;6.90;;;;;;;7.58;91.14;99079.90;130345;1277;114703;-69
2023/11/02 01:45:24;;;;;;;15.50;6.40;;;;;;;7.57;91.47;99075.70;130032;1264;115228;-70
2023/11/02 01:48:34;;;;;;;11.90;6.50;;;;;;;7.56;91.66;99072.05;130338;1257;114823;-70
2023/11/02 01:51:48;;;;;;;12.80;6.70;;;;;;;7.55;91.46;99071.02;129979;1260;114888;-69
2023/11/02 01:55:00;;;;;;;9.60;5.90;;;;;;;7.53;91.53;99067.91;130241;1277;114746;-66
2023/11/02 01:58:04;;;;;;;11.50;6.80;;;;;;;7.51;91.26;99057.59;129943;1264;127118;-70
2023/11/02 02:01:16;;;;;;;12.00;6.40;;;;;;;7.49;91.46;99049.91;130018;1258;114825;-71
2023/11/02 02:04:30;;;;;;;7.90;5.50;;;;;;;7.45;91.70;99042.96;130243;1277;114805;-72
2023/11/02 02:08:03;;;;;;;9.90;5.60;;;;;;;7.42;91.84;99040.30;130241;1257;114706;-70
2023/11/02 02:11:39;;;;;;;11.00;6.80;;;;;;;7.40;91.39;99044.88;130304;1257;114706;-71
2023/11/02 02:14:57;;;;;;;10.70;5.60;;;;;;;7.37;91.53;99036.53;129430;1285;128904;-71
2023/11/02 02:18:18;;;;;;;9.40;6.00;;;;;;;7.35;91.92;99036.64;129486;1264;115416;-65
2023/11/02 02:21:50;;;;;;;10.40;6.00;;;;;;;7.34;91.21;99036.36;129580;1267;114852;-69
2023/11/02 02:25:13;;;;;;;11.30;5.30;;;;;;;7.32;91.63;99031.67;129521;1267;114851;-70
2023/11/02 02:28:39;;;;;;;10.50;5.00;;;;;;;7.28;91.44;99032.72;129520;1275;114826;-68
2023/11/02 02:31:47;;;;;;;9.90;5.10;;;;;;;7.25;91.23;99030.43;129562;1264;127807;-70
2023/11/02 02:34:49;;;;;;;6.20;5.20;;;;;;;7.21;91.19;99028.71;129454;1285;116393;-73
2023/11/02 02:38:05;;;;;;;14.60;5.60;;;;;;;7.16;90.95;99028.27;129610;1266;114799;-70
2023/11/02 02:41:09;;;;;;;13.50;6.30;;;;;;;7.12;90.99;99027.80;129510;1269;114909;-67
2023/11/02 02:44:13;;;;;;;14.30;5.60;;;;;;;7.06;90.99;99021.93;129559;1277;115068;-71
2023/11/02 02:47:17;;;;;;;10.70;6.00;;;;;;;7.01;91.06;99010.84;129320;1269;128054;-68
2023/11/02 02:50:20;;;;;;;11.30;6.20;;;;;;;6.97;91.29;99000.73;129691;1270;115236;-71
2023/11/02 02:53:30;;;;;;;10.30;5.90;;;;;;;6.96;91.58;98993.50;130191;1254;114734;-71
2023/11/02 02:56:33;;;;;;;11.40;5.70;;;;;;;6.94;91.37;98984.21;130401;1255;114777;-68
2023/11/02 02:59:39;;;;;;;9.90;5.60;;;;;;;6.93;91.77;98977.66;130067;1277;114948;-69
2023/11/02 03:02:42;;;;;;;8.50;5.90;;;;;;;6.93;91.63;98976.30;130303;1267;129705;-70
2023/11/02 03:05:44;;;;;;;15.20;6.00;;;;;;;6.92;92.07;98972.80;130506;1257;114687;-68
2023/11/02 03:08:47;;;;;;;12.20;5.90;;;;;;;6.91;91.90;98963.30;130381;1257;114804;-65
2023/11/02 03:11:54;;;;;;;8.40;5.10;;;;;;;6.88;92.33;98957.05;130358;1257;114846;-71
2023/11/02 03:15:01;;;;;;;8.80;5.80;;;;;;;6.86;92.14;98964.45;130106;1254;114836;-67
2023/11/02 03:18:13;;;;;;;9.60;5.50;;;;;;;6.83;91.95;98969.58;130107;1260;128528;-73
2023/11/02 03:21:15;;;;;;;11.80;4.90;;;;;;;6.80;92.30;98966.89;130436;1257;115177;-68
2023/11/02 03:24:24;;;;;;;8.20;5.40;;;;;;;6.78;92.28;98968.64;130384;1261;114728;-67
2023/11/02 03:27:58;;;;;;;12.00;5.60;;;;;;;6.75;92.37;98966.64;130023;1258;114890;-71
2023/11/02 03:31:06;;;;;;;9.20;5.40;;;;;;;6.71;92.47;98961.70;130328;1257;114757;-68
2023/11/02 03:34:33;;;;;;;10.50;5.90;;;;;;;6.68;92.43;98960.27;130333;1257;129100;-70
2023/11/02 03:38:07;;;;;;;13.80;6.10;;;;;;;6.67;92.64;98955.55;130330;1258;115164;-70
2023/11/02 03:41:48;;;;;;;10.20;5.60;;;;;;;6.63;92.36;98955.57;130047;1264;114824;-71
2023/11/02 03:44:50;;;;;;;8.50;5.10;;;;;;;6.60;92.27;98951.84;130070;1254;114768;-70
2023/11/02 03:48:15;;;;;;;10.70;5.60;;;;;;;6.57;92.21;98941.73;130309;1257;116327;-72
2023/11/02 03:51:39;;;;;;;10.20;6.10;;;;;;;6.54;92.35;98942.77;130335;1257;128436;-71
2023/11/02 03:55:13;;;;;;;10.80;5.60;;;;;;;6.52;92.44;98933.86;130293;1257;115167;-71
2023/11/02 03:58:18;;;;;;;7.60;4.70;;;;;;;6.49;92.75;98930.11;129594;1281;114846;-72
2023/11/02 04:01:31;;;;;;;11.00;5.10;;;;;;;6.48;92.93;98928.23;129622;1267;114853;-72
2023/11/02 04:04:47;;;;;;;7.60;5.40;;;;;;;6.47;92.82;98928.80;129714;1264;114943;-72
2023/11/02 04:08:10;;;;;;;8.30;5.10;;;;;;;6.47;93.07;98925.62;129640;1276;127988;-66
2023/11/02 04:11:27;;;;;;;9.90;5.00;;;;;;;6.47;93.22;98919.36;129501;1264;115245;-66
2023/11/02 04:14:30;;;;;;;8.10;4.30;;;;;;;6.49;93.32;98918.56;129725;1264;114857;-67
2023/11/02 04:17:32;;;;;;;6.70;4.40;;;;;;;6.51;93.50;98916.14;129696;1267;114763;-66
2023/11/02 04:20:37;;;;;;;8.90;5.00;;;;;;;6.53;93.65;98910.52;129733;1267;114734;-65
2023/11/02 04:23:39;;;;;;;7.20;4.20;;;;;;;6.55;93.54;98903.35;129708;1265;129083;-66
2023/11/02 04:26:41;;;;;;;6.70;5.00;;;;;;;6.56;93.78;98896.92;129859;1280;115504;-64
2023/11/02 04:29:43;;;;;;;11.70;5.30;;;;;;;6.57;93.85;98896.32;129670;1265;114806;-65
2023/11/02 04:32:45;;;;;;;7.10;4.80;;;;;;;6.58;93.97;98890.58;129679;1261;115019;-65
2023/11/02 04:35:47;;;;;;;11.50;5.50;;;;;;;6.61;93.98;98883.38;130218;1254;114748;-66
2023/11/02 04:38:52;;;;;;;12.70;5.90;;;;;;;6.63;94.19;98877.17;130283;1258;114761;-64
2023/11/02 04:41:54;;;;;;;;;;;;;;;6.64;94.03;98872.30;129955;1254;114802;-63
2023/11/02 04:44:56;;;;;;;12.50;6.70;;;;;;;6.65;94.37;98871.55;130188;1257;114764;-65
2023/11/02 04:47:58;;;;;;;10.60;6.30;;;;;;;6.67;94.24;98866.67;130118;1256;114792;-64
2023/11/02 04:51:00;;;;;;;9.60;5.50;;;;;;;6.68;94.33;98862.00;130292;1256;114753;-65
2023/11/02 04:54:03;;;;;;;13.80;6.30;;;;;;;6.69;94.41;98857.67;130201;1257;115259;-68
2023/11/02 04:57:05;;;;;;;10.60;6.40;;;;;;;6.69;94.45;98846.68;130274;1258;114740;-66
2023/11/02 05:00:08;;;;;;;16.00;7.00;;;;;;;6.70;94.53;98839.16;129959;1265;114827;-66
2023/11/02 05:03:10;;;;;;;11.90;6.80;;;;;;;6.71;94.48;98839.47;130436;1254;114848;-64
2023/11/02 05:06:12;;;;;;;13.70;7.60;;;;;;;6.72;94.64;98839.41;130363;1259;115128;-64
2023/11/02 05:09:14;;;;;;;11.60;7.20;;;;;;;6.73;94.62;98845.75;130510;1257;114712;-64
2023/11/02 05:12:16;;;;;;;9.70;6.60;;;;;;;6.74;94.57;98841.79;130238;1254;115042;-64
2023/11/02 05:15:18;;;;;;;14.80;6.80;;;;;;;6.74;94.68;98835.75;130176;1254;114799;-66
2023/11/02 05:18:20;;;;;;;16.60;7.70;;;;;;;6.74;94.47;98831.48;130420;1257;114741;-66
2023/11/02 05:21:22;;;;;;;12.00;6.20;;;;;;;6.74;94.58;98828.65;130121;1254;114846;-65
2023/11/02 05:24:24;;;;;;;15.70;6.60;;;;;;;6.74;94.64;98822.63;130155;1257;115259;-64
2023/11/02 05:27:26;;;;;;;11.00;6.00;;;;;;;6.74;94.77;98808.25;130196;1258;114824;-64
2023/11/02 05:30:28;;;;;;;11.70;6.30;;;;;;;6.74;94.63;98803.10;130172;1257;129652;-64
2023/11/02 05:33:30;;;;;;;9.30;6.10;;;;;;;6.74;94.60;98810.21;130212;1277;114895;-65
2023/11/02 05:36:32;;;;;;;10.70;7.20;;;;;;;6.74;94.86;98813.38;130277;1257;114722;-64
2023/11/02 05:39:34;;;;;;;11.50;6.50;;;;;;;6.76;94.91;98801.39;130250;1257;115087;-64
2023/11/02 05:42:36;;;;;;;10.70;7.20;;;;;;;6.77;94.79;98785.36;130043;1254;115445;-64
2023/11/02 05:45:39;;;;;;;10.20;6.60;;;;;;;6.78;94.94;98780.14;130332;1254;114712;-64
2023/11/02 05:48:41;;;;;;;10.70;6.90;;;;;;;6.80;95.06;98785.39;130164;1254;114830;-65
2023/11/02 05:51:43;;;;;;;11.60;6.50;;;;;;;6.80;95.13;98789.44;130155;1254;114763;-65
2023/11/02 05:54:44;;;;;;;12.90;7.10;;;;;;;6.80;95.12;98793.86;130253;1257;115380;-64
2023/11/02 05:57:47;;;;;;;15.70;6.70;;;;;;;6.81;95.09;98791.54;130184;1254;115439;-64
2023/11/02 06:00:49;;;;;;;10.60;6.60;;;;;;;6.83;94.99;98787.67;130172;1257;114828;-64
2023/11/02 06:03:51;;;;;;;12.50;7.30;;;;;;;6.85;95.13;98786.15;130297;1257;115392;-64
2023/11/02 06:06:53;;;;;;;9.60;7.20;;;;;;;6.88;95.15;98789.51;130094;1253;115329;-65
2023/11/02 06:09:55;;;;;;;15.40;8.30;;;;;;;6.91;95.12;98785.97;130214;1259;115230;-64
2023/11/02 06:12:57;;;;;;;14.00;7.30;;;;;;;6.94;94.90;98782.56;130408;1257;114757;-65
2023/11/02 06:15:59;;;;;;;11.70;7.50;;;;;;;6.99;95.06;98772.52;129838;1254;128045;-65
2023/11/02 06:19:01;;;;;;;16.00;7.50;;;;;;;7.05;95.32;98761.36;130169;1254;114780;-65
2023/11/02 06:22:03;;;;;;;12.00;7.00;;;;;;;7.12;95.24;98767.51;130285;1257;114734;-65
2023/11/02 06:25:05;;;;;;;14.00;8.00;;;;;;;7.18;94.86;98762.73;130174;1254;115183;-65
2023/11/02 06:28:07;;;;;;;17.10;8.80;;;;;;;7.23;95.00;98757.65;130174;1254;114719;-65
2023/11/02 06:31:09;;;;;;;18.10;10.00;;;;;;;7.26;94.95;98753.02;130112;1253;114805;-65
2023/11/02 06:34:11;;;;;;;15.90;8.60;;;;;;;7.30;94.84;98752.05;129958;1263;114800;-65
2023/11/02 06:37:18;;;;;;;16.50;8.00;;;;;;;7.37;95.01;98747.56;130148;1257;114820;-65
2023/11/02 06:40:20;;;;;;;18.20;9.40;;;;;;;7.42;94.88;98735.34;129861;1254;115089;-65
2023/11/02 06:43:22;;;;;;;12.90;8.10;;;;;;;7.47;95.18;98723.52;130363;1257;114796;-65
2023/11/02 06:46:24;;;;;;;18.40;7.90;;;;;;;7.50;95.13;98714.22;130308;1254;114798;-64
2023/11/02 06:49:26;;;;;;;16.20;8.70;;;;;;;7.54;95.19;98704.92;129903;1262;114907;-64
2023/11/02 06:52:28;;;;;;;18.90;9.10;;;;;;;7.63;95.32;98695.52;130198;1273;115231;-64
2023/11/02 06:55:31;;;;;;;18.40;8.20;;;;;;;7.75;95.14;98687.80;130315;1257;114724;-65
2023/11/02 06:58:34;;;;;;;15.30;8.60;;;;;;;7.87;95.34;98687.40;130188;1273;128453;-64
2023/11/02 07:01:37;;;;;;;13.40;8.40;;;;;;;7.98;95.48;98677.45;130259;1257;114814;-66
2023/11/02 07:04:39;;;;;;;13.30;7.10;;;;;;;8.10;95.53;98672.92;130256;1257;114807;-65
2023/11/02 07:07:43;;;;;;;14.10;7.90;;;;;;;8.20;95.34;98665.86;130358;1257;114731;-70
2023/11/02 07:10:48;;;;;;;12.00;7.30;;;;;;;8.31;95.56;98660.30;130333;1257;114988;-68
2023/11/02 07:13:50;;;;;;;13.90;7.90;;;;;;;8.44;95.34;98650.79;130040;1262;114811;-64
2023/11/02 07:16:52;;;;;;;14.90;7.20;;;;;;;8.50;95.03;98650.41;130225;1257;114837;-70
2023/11/02 07:19:54;;;;;;;11.20;7.70;;;;;;;8.53;94.79;98654.98;130376;1253;115170;-70
2023/11/02 07:22:58;;;;;;;18.40;7.70;;;;;;;8.57;94.58;98652.45;130274;1257;115189;-70
2023/11/02 07:26:00;;;;;;;12.70;7.30;;;;;;;8.60;94.74;98640.98;130229;1255;115086;-66
2023/11/02 07:29:07;;;;;;;11.70;7.50;;;;;;;8.76;95.28;98633.69;130171;1257;115325;-64
2023/11/02 07:32:10;;;;;;;12.00;7.40;;;;;;;9.00;95.57;98627.08;129802;1277;114825;-66
2023/11/02 07:35:12;;;;;;;12.30;7.40;;;;;;;9.27;95.48;98625.36;130188;1277;115090;-68
2023/11/02 07:38:14;;;;;;;13.20;7.50;;;;;;;9.52;95.37;98631.23;130365;1257;114783;-66
2023/11/02 07:41:18;;;;;;;15.50;8.60;;;;;;;9.76;95.08;98634.27;130342;1257;115265;-66
2023/11/02 07:44:20;;;;;;;13.50;9.80;;;;;;;10.09;95.20;98630.51;130095;1254;114859;-64
2023/11/02 07:47:22;;;;;;;16.10;9.70;;;;;;;10.44;94.73;98619.84;130088;1253;115221;-68
2023/11/02 07:50:24;;;;;;;20.40;9.60;;;;;;;10.75;94.99;98624.44;130312;1254;115122;-64
2023/11/02 07:53:26;;;;;;;15.10;8.40;;;;;;;11.03;94.08;98621.91;130223;1257;114836;-68
2023/11/02 07:56:28;;;;;;;12.80;7.30;;;;;;;11.26;93.07;98611.20;129988;1257;114800;-65
2023/11/02 07:59:30;;;;;;;18.40;7.00;;;;;;;11.43;92.20;98601.43;130327;1254;114720;-66
2023/11/02 08:02:32;;;;;;;12.90;8.40;;;;;;;11.58;92.10;98598.63;130425;1256;115287;-65
2023/11/02 08:05:34;;;;;;;13.20;6.70;;;;;;;11.73;91.61;98592.39;130391;1255;114794;-63
2023/11/02 08:08:37;;;;;;;12.90;6.10;;;;;;;11.85;91.20;98591.25;130260;1268;114754;-68
2023/11/02 08:11:39;;;;;;;11.00;5.90;;;;;;;12.00;91.13;98586.15;130068;1260;114715;-64
2023/11/02 08:14:42;;;;;;;9.40;6.20;;;;;;;12.15;91.11;98575.77;130280;1270;114716;-66
2023/11/02 08:17:44;;;;;;;11.30;6.50;;;;;;;12.26;90.92;98576.57;130244;1277;114754;-69
2023/11/02 08:20:46;;;;;;;14.00;7.00;;;;;;;12.35;90.14;98575.33;130372;1254;114785;-64
2023/11/02 08:23:49;;;;;;;9.90;5.50;;;;;;;12.42;89.75;98572.63;129961;1264;115150;-69
2023/11/02 08:26:51;;;;;;;8.80;5.70;;;;;;;12.48;89.23;98565.30;130470;1258;114801;-66
2023/11/02 08:29:53;;;;;;;10.10;4.50;;;;;;;12.55;89.18;98560.96;130466;1257;114706;-67
2023/11/02 08:32:55;;;;;;;7.60;5.50;;;;;;;12.62;88.86;98558.94;130365;1257;114773;-63
2023/11/02 08:35:57;;;;;;;8.60;5.70;;;;;;;12.69;88.80;98558.35;130230;1257;114847;-63
2023/11/02 08:39:00;;;;;;;12.80;4.90;;;;;;;12.75;88.29;98552.23;130333;1276;114718;-65
2023/11/02 08:42:03;;;;;;;9.80;5.70;;;;;;;12.84;88.69;98538.38;130348;1254;115120;-64
2023/11/02 08:45:05;;;;;;;10.50;5.30;;;;;;;12.96;88.36;98528.77;129984;1258;116564;-64
2023/11/02 08:48:08;;;;;;;5.60;4.90;;;;;;;13.06;88.19;98516.04;130184;1254;115281;-67
2023/11/02 08:51:18;;;;;;;8.60;5.10;;;;;;;13.15;87.43;98512.91;130261;1254;114807;-66
2023/11/02 08:54:25;;;;;;;9.50;5.30;;;;;;;13.23;87.32;98506.98;129943;1253;114888;-67
2023/11/02 08:57:27;;;;;;;9.70;5.00;;;;;;;13.30;86.87;98505.84;129966;1257;114720;-60
2023/11/02 09:00:29;;;;;;;8.80;4.90;;;;;;;13.36;86.84;98504.59;129922;1276;115339;-59
2023/11/02 09:03:32;;;;;;;8.20;4.90;;;;;;;13.40;85.85;98501.23;129883;1254;115439;-60
2023/11/02 09:06:34;;;;;;;12.90;5.40;;;;;;;13.45;85.82;98512.59;129984;1259;114800;-63
2023/11/02 09:09:36;;;;;;;8.10;4.70;;;;;;;13.55;85.64;98510.05;129900;1254;115146;-65
2023/11/02 09:12:38;;;;;;;6.90;4.50;;;;;;;13.63;85.05;98508.29;130402;1257;114746;-66
2023/11/02 09:15:40;;;;;;;8.30;4.80;;;;;;;13.69;85.03;98514.94;130293;1277;114633;-65
2023/11/02 09:18:42;;;;;;;6.90;4.10;;;;;;;13.74;84.81;98515.58;130126;1257;114726;-66
2023/11/02 09:21:44;;;;;;;7.00;3.80;;;;;;;13.79;84.95;98497.52;130288;1257;115319;-66
2023/11/02 09:24:46;;;;;;;7.10;4.50;;;;;;;13.84;84.58;98498.45;130028;1259;114708;-66
2023/11/02 09:27:48;;;;;;;7.70;4.00;;;;;;;13.89;84.41;98498.20;130212;1253;114793;-65
2023/11/02 09:30:51;;;;;;;6.10;4.20;;;;;;;13.96;84.07;98484.48;130403;1258;114724;-65
2023/11/02 09:33:53;;;;;;;5.40;4.00;;;;;;;14.01;83.10;98465.92;130088;1262;114806;-66
2023/11/02 09:36:55;;;;;;;7.90;4.40;;;;;;;14.06;83.21;98466.70;130271;1253;114734;-66
2023/11/02 09:39:57;;;;;;;4.70;4.00;;;;;;;14.15;83.02;98462.01;130327;1254;114743;-66
2023/11/02 09:43:02;;;;;;;5.80;4.60;;;;;;;14.25;82.30;98459.13;130034;1260;127767;-66
2023/11/02 09:46:05;;;;;;;9.20;4.00;;;;;;;14.30;82.33;98452.92;130126;1260;115231;-67
2023/11/02 09:49:07;;;;;;;6.50;3.70;;;;;;;14.36;81.47;98447.36;130327;1257;115273;-62
2023/11/02 09:52:09;;;;;;;6.20;3.60;;;;;;;14.40;80.96;98444.94;129686;1261;114733;-64
2023/11/02 09:55:11;;;;;;;5.60;3.80;;;;;;;14.48;80.59;98434.01;127291;1262;3303621;-63
2023/11/02 09:58:17;;;;;;;7.60;4.30;;;;;;;14.57;80.82;98420.90;129869;1264;114952;-64
2023/11/02 10:01:19;;;;;;;7.50;3.80;;;;;;;14.65;79.64;98428.82;129616;1275;128212;-64
2023/11/02 10:04:21;;;;;;;4.20;2.90;;;;;;;14.68;79.56;98431.54;129749;1254;114758;-67
2023/11/02 10:07:23;;;;;;;6.60;3.40;;;;;;;14.71;79.41;98423.40;130429;1257;115231;-68
2023/11/02 10:10:31;;;;;;;5.30;3.30;;;;;;;14.74;79.35;98409.78;130251;1254;114834;-67
2023/11/02 10:13:33;;;;;;;4.90;3.00;;;;;;;14.81;78.77;98398.92;129917;1253;114816;-67
2023/11/02 10:16:35;;;;;;;7.40;3.20;;;;;;;14.84;77.71;98387.60;130333;1257;115249;-66
2023/11/02 10:19:38;;;;;;;5.00;3.20;;;;;;;14.88;77.61;98384.28;130392;1258;114635;-66
2023/11/02 10:22:42;;;;;;;7.10;3.60;;;;;;;14.96;77.60;98377.31;130212;1259;128475;-68
2023/11/02 10:25:44;;;;;;;6.10;2.60;;;;;;;15.05;77.38;98369.42;130054;1253;115188;-66
2023/11/02 10:28:47;;;;;;;4.80;3.00;;;;;;;15.13;76.28;98365.74;130188;1253;115225;-65
2023/11/02 10:31:53;;;;;;;3.90;2.90;;;;;;;15.20;76.72;98360.30;129885;1259;115486;-65
2023/11/02 10:34:56;;;;;;;3.70;3.10;;;;;;;15.28;76.38;98354.92;129836;1257;114767;-66
2023/11/02 10:38:01;;;;;;;7.90;3.20;;;;;;;15.32;75.27;98347.56;130170;1262;114821;-65
2023/11/02 10:41:05;;;;;;;3.40;2.50;;;;;;;15.37;74.82;98340.66;130291;1254;128868;-65
2023/11/02 10:44:07;;;;;;;5.80;3.10;;;;;;;15.39;74.35;98338.27;129478;1263;115375;-63
2023/11/02 10:47:11;;;;;;;8.40;2.80;;;;;;;15.40;74.16;98330.83;129885;1259;115157;-64
2023/11/02 10:50:21;;;;;;;4.40;3.40;;;;;;;15.39;73.97;98337.60;130369;1259;114802;-66
2023/11/02 10:53:50;;;;;;;4.70;2.50;;;;;;;15.39;73.96;98327.48;129989;1253;115237;-64
2023/11/02 10:57:01;;;;;;;4.30;3.10;;;;;;;15.47;73.83;98321.85;130078;1261;127548;-66
2023/11/02 11:00:04;;;;;;;5.00;2.60;;;;;;;15.61;73.77;98312.40;130346;1257;115243;-66
2023/11/02 11:03:07;;;;;;;2.90;2.50;;;;;;;15.77;73.73;98307.42;129669;1257;114824;-63
2023/11/02 11:19:35;;;;;;;4.90;2.70;;;;;;;15.83;71.64;98289.16;126609;1297;636411;-73
2023/11/02 11:22:39;;;;;;;5.60;2.70;;;;;;;15.73;71.80;98281.91;129312;1289;114810;-66
2023/11/02 11:25:58;;;;;;;4.10;2.80;;;;;;;15.65;71.63;98270.67;129297;1273;115456;-64
2023/11/02 11:29:00;;;;;;;4.00;2.40;;;;;;;15.58;71.03;98269.14;128560;1273;114891;-64
2023/11/02 11:32:06;;;;;;;4.50;2.80;;;;;;;15.49;70.60;98264.92;126690;1287;3320438;-65
2023/11/02 11:35:12;;;;;;;3.10;2.30;;;;;;;15.45;70.79;98258.21;129450;1287;115019;-65
2023/11/02 11:38:35;;;;;;;7.70;3.00;;;;;;;15.42;71.28;98255.94;129530;1281;128572;-65
2023/11/02 11:41:44;;;;;;;4.40;2.40;;;;;;;15.42;71.50;98252.36;129266;1270;116457;-67
2023/11/02 11:45:24;;;;;;;3.30;3.00;;;;;;;15.42;71.09;98248.55;129623;1270;114783;-67
2023/11/02 11:48:38;;;;;;;6.30;2.40;;;;;;;15.46;71.55;98244.45;129476;1287;115199;-67
2023/11/02 11:51:43;;;;;;;6.10;2.80;;;;;;;15.51;71.24;98239.58;129492;1269;114718;-67
2023/11/02 11:54:45;;;;;;;3.90;2.50;;;;;;;15.54;71.06;98229.95;129193;1280;126891;-67
2023/11/02 11:57:49;;;;;;;11.80;3.70;;;;;;;15.59;71.27;98223.13;129468;1264;114695;-69
2023/11/02 12:00:53;;;;;;;2.80;1.90;;;;;;;15.65;71.25;98216.37;129380;1270;114779;-66
2023/11/02 12:03:55;;;;;;;6.50;2.10;;;;;;;15.71;71.07;98215.25;129165;1271;114862;-65
2023/11/02 12:06:58;;;;;;;7.60;2.00;;;;;;;15.74;70.73;98217.63;129565;1270;115300;-67
2023/11/02 12:10:01;;;;;;;4.00;2.30;;;;;;;15.77;71.03;98214.22;129473;1287;114800;-66
2023/11/02 12:13:04;;;;;;;6.30;2.00;;;;;;;15.81;70.83;98207.17;129462;1264;114809;-64
2023/11/02 12:16:06;;;;;;;4.50;2.00;;;;;;;15.84;70.24;98196.41;129418;1270;114752;-66
2023/11/02 12:19:10;;;;;;;5.60;1.60;;;;;;;15.83;69.68;98190.92;129583;1267;114719;-65
2023/11/02 12:22:12;;;;;;;6.90;2.20;;;;;;;15.85;70.18;98186.11;129838;1270;114718;-66
2023/11/02 12:25:18;;;;;;;3.80;1.70;;;;;;;15.90;70.27;98186.66;129651;1283;114710;-66
2023/11/02 12:28:21;;;;;;;4.70;1.50;;;;;;;15.93;69.77;98183.40;129642;1273;128869;-64
2023/11/02 12:31:32;;;;;;;5.60;1.60;;;;;;;16.00;69.75;98187.70;129723;1270;114811;-60
2023/11/02 12:34:34;;;;;;;4.10;1.60;;;;;;;16.08;69.77;98182.87;133890;1263;112880;-66
2023/11/02 12:37:36;;;;;;;4.90;1.60;;;;;;;16.16;69.36;98189.48;129307;1269;115255;-64
2023/11/02 12:40:51;;;;;;;26.20;5.10;;;;;;;16.19;68.76;98191.98;129130;1288;116421;-65
2023/11/02 12:44:04;;;;;;;6.00;2.00;;;;;;;16.23;69.00;98200.64;128745;1287;116308;-60
2023/11/02 12:47:06;;;;;;;5.80;1.60;;;;;;;16.26;68.81;98197.04;129047;1270;128407;-64
2023/11/02 12:50:30;;;;;;;11.50;1.80;;;;;;;16.31;68.70;98185.12;129160;1274;114734;-65
2023/11/02 12:53:34;;;;;;;44.30;3.10;;;;;;;16.38;68.78;98180.80;129129;1267;114817;-67
2023/11/02 12:56:39;;;;;;;13.20;2.40;;;;;;;16.42;68.03;98169.27;129010;1267;114840;-66
2023/11/02 12:59:42;;;;;;;5.80;1.30;;;;;;;16.40;67.69;98157.66;128859;1270;116362;-59
2023/11/02 13:02:46;;;;;;;3.00;1.30;;;;;;;16.37;67.20;98154.47;128982;1288;128572;-60
2023/11/02 13:05:51;;;;;;;3.30;1.50;;;;;;;16.33;66.98;98154.73;129063;1288;116262;-59
2023/11/02 13:09:06;;;;;;;3.60;1.40;;;;;;;16.27;66.36;98156.55;129157;1288;114764;-60
2023/11/02 13:12:12;;;;;;;6.40;1.30;;;;;;;16.20;66.11;98143.80;129177;1288;115324;-61
2023/11/02 13:15:15;;;;;;;2.60;1.20;;;;;;;16.14;65.86;98137.23;128936;1288;114783;-59
2023/11/02 13:18:18;;;;;;;3.00;1.20;;;;;;;16.08;65.75;98139.17;129037;1288;129171;-60
2023/11/02 13:21:20;;;;;;;4.80;1.40;;;;;;;16.02;65.80;98135.35;129063;1270;114731;-60
2023/11/02 13:24:22;;;;;;;3.80;1.90;;;;;;;15.96;66.01;98137.39;129256;1267;114735;-61
2023/11/02 13:27:27;;;;;;;6.20;1.80;;;;;;;15.89;65.99;98133.45;128955;1272;114815;-62
2023/11/02 13:30:29;;;;;;;5.10;2.20;;;;;;;15.83;65.95;98141.58;129161;1265;114715;-61
2023/11/02 13:33:32;;;;;;;4.80;1.20;;;;;;;15.77;66.03;98135.61;129107;1269;114898;-60
2023/11/02 13:36:34;;;;;;;8.90;1.20;;;;;;;15.69;66.14;98122.56;129128;1266;114837;-59
2023/11/02 13:39:37;;;;;;;2.30;1.50;;;;;;;15.61;65.98;98105.25;129137;1266;115467;-58
2023/11/02 13:42:41;;;;;;;4.10;1.10;;;;;;;15.53;66.45;98101.38;128941;1272;115683;-59
2023/11/02 13:45:43;;;;;;;3.60;1.50;;;;;;;15.44;66.06;98099.98;129027;1267;114938;-62
2023/11/02 13:48:48;;;;;;;2.60;1.10;;;;;;;15.35;66.44;98092.16;129107;1269;114763;-59
2023/11/02 13:51:51;;;;;;;4.00;1.10;;;;;;;15.25;66.37;98084.33;129118;1287;115221;-58
2023/11/02 13:54:53;;;;;;;4.30;1.50;;;;;;;15.17;66.86;98081.22;129312;1268;114747;-62
2023/11/02 13:57:55;;;;;;;4.10;1.40;;;;;;;15.08;66.84;98075.34;129046;1288;114879;-60
2023/11/02 14:00:57;;;;;;;4.40;1.50;;;;;;;14.99;67.29;98069.25;129425;1269;114748;-61
2023/11/02 14:04:00;;;;;;;4.60;1.60;;;;;;;14.91;67.20;98065.93;129316;1269;115158;-63
2023/11/02 14:07:02;;;;;;;4.80;2.00;;;;;;;14.84;67.42;98051.71;129360;1266;114748;-63
2023/11/02 14:10:05;;;;;;;7.80;1.60;;;;;;;14.78;67.91;98043.76;129309;1282;114816;-59
2023/11/02 14:13:08;;;;;;;6.20;2.40;;;;;;;14.72;67.74;98030.30;129332;1280;115311;-61
2023/11/02 14:16:14;;;;;;;5.00;2.90;;;;;;;14.68;67.78;98017.56;129121;1281;128954;-59
2023/11/02 14:19:17;;;;;;;4.00;1.60;;;;;;;14.65;67.97;98009.60;129103;1288;115241;-60
2023/11/02 14:22:21;;;;;;;5.50;2.10;;;;;;;14.63;68.07;98001.05;129182;1269;114803;-62
2023/11/02 14:25:24;;;;;;;5.10;1.90;;;;;;;14.61;68.22;97988.11;129098;1288;114717;-64
2023/11/02 14:28:27;;;;;;;6.60;2.20;;;;;;;14.60;68.25;97984.84;129182;1270;114785;-61